Time;durP1;ratioP1;P1;durP2;ratioP2;P2;SDS_P1;SDS_P2;PMS_P1;PMS_P2;Temp;Humidity;BMP_temperature;BMP_pressure;BME280_temperature;BME280_humidity;BME280_pressure;Samples;Min_cycle;Max_cycle;Signal;HPM_P1;HPM_P2
2022/11/21 00:01:19;;;;;;;33.90;20.20;;;;;;;0.20;100.00;99105.81;5081428;28;20928;-72
2022/11/21 00:03:46;;;;;;;32.80;20.80;;;;;;;0.04;100.00;99095.47;5089897;28;20464;-74
2022/11/21 00:06:13;;;;;;;32.07;19.03;;;;;;;0.21;100.00;99097.81;5085395;28;20514;-76
2022/11/21 00:08:39;;;;;;;34.50;19.30;;;;;;;0.22;100.00;99101.28;5101615;28;20484;-79
2022/11/21 00:11:06;;;;;;;35.20;19.85;;;;;;;0.17;100.00;99098.94;5084544;28;20499;-80
2022/11/21 00:13:32;;;;;;;32.23;19.37;;;;;;;0.22;100.00;99102.13;5084253;28;20247;-80
2022/11/21 00:16:05;;;;;;;33.37;19.67;;;;;;;0.13;100.00;99098.31;5096099;28;20472;-80
2022/11/21 00:18:33;;;;;;;30.90;19.17;;;;;;;0.00;100.00;99100.09;5080956;28;20491;-80
2022/11/21 00:21:04;;;;;;;31.37;19.70;;;;;;;0.14;100.00;99105.28;5082321;28;20496;-78
2022/11/21 00:23:30;;;;;;;27.93;18.93;;;;;;;0.04;100.00;99114.72;5081144;28;21039;-79
2022/11/21 00:25:57;;;;;;;32.60;20.93;;;;;;;0.09;100.00;99111.78;5080344;28;20476;-79
2022/11/21 00:28:24;;;;;;;30.73;18.50;;;;;;;0.02;100.00;99115.72;5081091;28;20857;-80
2022/11/21 00:30:50;;;;;;;34.10;20.70;;;;;;;-0.05;100.00;99113.53;5080435;28;20503;-76
2022/11/21 00:33:18;;;;;;;36.07;20.67;;;;;;;0.04;100.00;99113.88;5081526;28;20495;-79
2022/11/21 00:35:47;;;;;;;34.63;20.00;;;;;;;0.00;100.00;99118.50;5092190;28;20831;-79
2022/11/21 00:38:15;;;;;;;32.50;20.90;;;;;;;-0.09;100.00;99112.03;5096405;28;21025;-80
2022/11/21 00:40:42;;;;;;;33.30;19.97;;;;;;;0.08;100.00;99104.84;5080883;28;20536;-77
2022/11/21 00:43:09;;;;;;;31.35;20.35;;;;;;;0.12;100.00;99104.53;5079779;28;20949;-80
2022/11/21 00:45:36;;;;;;;36.87;21.50;;;;;;;0.14;100.00;99107.03;5080201;28;20256;-81
2022/11/21 00:48:03;;;;;;;28.67;18.30;;;;;;;0.16;100.00;99097.28;5080356;28;20468;-76
2022/11/21 00:50:31;;;;;;;37.97;20.10;;;;;;;0.22;100.00;99098.66;5080525;28;20460;-80
2022/11/21 00:52:58;;;;;;;33.07;18.70;;;;;;;0.26;100.00;99092.22;5086339;28;20562;-79
2022/11/21 00:55:25;;;;;;;31.80;19.33;;;;;;;0.27;100.00;99091.28;5080500;28;20456;-79
2022/11/21 00:57:52;;;;;;;34.60;19.97;;;;;;;0.34;99.31;99097.81;5080172;28;20459;-77
2022/11/21 01:00:19;;;;;;;33.10;19.97;;;;;;;0.31;99.65;99101.50;5080382;28;20473;-73
2022/11/21 01:02:45;;;;;;;28.90;18.40;;;;;;;0.19;99.58;99091.78;5080872;28;20462;-77
2022/11/21 01:05:12;;;;;;;29.70;19.30;;;;;;;0.06;100.00;99101.47;5079880;28;20498;-77
2022/11/21 01:07:40;;;;;;;35.03;20.73;;;;;;;0.06;100.00;99110.19;5099120;28;20483;-74
2022/11/21 01:10:07;;;;;;;32.53;19.70;;;;;;;0.26;100.00;99116.75;5099542;28;20427;-76
2022/11/21 01:12:34;;;;;;;31.20;19.60;;;;;;;0.33;100.00;99125.03;5097626;28;20482;-75
2022/11/21 01:15:01;;;;;;;32.40;19.60;;;;;;;0.15;99.82;99124.50;5097536;28;20504;-75
2022/11/21 01:17:27;;;;;;;30.13;19.90;;;;;;;0.23;99.92;99129.25;5099978;28;20538;-75
2022/11/21 01:19:54;;;;;;;30.27;20.03;;;;;;;0.32;99.64;99134.72;5080076;28;20468;-76
2022/11/21 01:22:21;;;;;;;34.80;19.17;;;;;;;0.47;99.29;99139.88;5079691;28;20508;-77
2022/11/21 01:24:52;;;;;;;38.77;21.40;;;;;;;0.53;98.91;99145.56;5087154;28;20473;-77
2022/11/21 01:27:18;;;;;;;33.13;19.80;;;;;;;0.35;98.78;99133.69;5098165;28;20502;-77
2022/11/21 01:29:45;;;;;;;29.40;18.77;;;;;;;0.34;98.68;99139.88;5093387;28;21102;-76
2022/11/21 01:32:11;;;;;;;29.07;18.47;;;;;;;0.46;98.52;99140.84;5080097;28;20503;-76
2022/11/21 01:34:38;;;;;;;29.67;19.23;;;;;;;0.56;97.65;99132.22;5087469;28;20472;-69
2022/11/21 01:37:05;;;;;;;27.30;16.97;;;;;;;0.57;97.24;99146.22;5087624;28;20506;-70
2022/11/21 01:39:31;;;;;;;31.00;17.90;;;;;;;0.37;97.46;99139.69;5094327;28;20951;-70
2022/11/21 01:42:00;;;;;;;27.67;19.17;;;;;;;0.40;98.06;99149.13;5098184;28;20499;-69
2022/11/21 01:44:46;;;;;;;29.70;18.40;;;;;;;0.37;98.48;99156.28;5102743;28;20455;-70
2022/11/21 01:47:13;;;;;;;33.97;19.40;;;;;;;0.34;98.71;99145.13;5078442;28;20508;-70
2022/11/21 01:49:41;;;;;;;28.23;17.57;;;;;;;0.33;98.79;99136.41;5092854;28;20443;-70
2022/11/21 01:52:10;;;;;;;27.40;18.00;;;;;;;0.39;98.81;99139.59;5099231;28;20502;-70
2022/11/21 01:54:39;;;;;;;28.73;18.00;;;;;;;0.42;98.98;99147.25;5084234;28;20901;-70
2022/11/21 01:57:10;;;;;;;30.30;19.37;;;;;;;0.47;98.86;99143.38;5097308;28;20546;-70
2022/11/21 01:59:40;;;;;;;28.23;17.13;;;;;;;0.47;98.80;99151.28;5088400;28;20987;-70
2022/11/21 02:02:09;;;;;;;26.60;16.87;;;;;;;0.46;98.68;99146.94;5082498;28;20496;-69
2022/11/21 02:04:36;;;;;;;26.40;15.90;;;;;;;0.49;98.49;99148.53;5083451;28;20459;-70
2022/11/21 02:07:06;;;;;;;28.20;17.20;;;;;;;0.45;98.38;99147.91;5089538;28;20479;-69
2022/11/21 02:09:34;;;;;;;26.10;17.00;;;;;;;0.34;98.72;99145.13;5085138;28;20444;-70
2022/11/21 02:12:04;;;;;;;28.00;18.17;;;;;;;0.30;98.70;99134.00;5075569;28;20506;-69
2022/11/21 02:14:33;;;;;;;29.20;16.93;;;;;;;0.33;98.94;99136.41;5102380;28;20483;-70
2022/11/21 02:17:02;;;;;;;28.50;18.07;;;;;;;0.30;98.92;99144.50;5097097;28;20476;-69
2022/11/21 02:19:34;;;;;;;30.90;17.47;;;;;;;0.33;98.92;99144.31;5083180;28;20444;-69
2022/11/21 02:22:04;;;;;;;34.60;18.00;;;;;;;0.29;98.92;99147.22;5082293;28;20500;-69
2022/11/21 02:24:35;;;;;;;35.07;17.20;;;;;;;0.31;98.78;99153.22;5083023;28;20460;-68
2022/11/21 02:27:03;;;;;;;26.60;16.60;;;;;;;0.30;98.92;99144.50;5087503;28;20508;-70
2022/11/21 02:29:30;;;;;;;29.00;17.70;;;;;;;0.27;98.93;99143.88;5094866;28;20499;-70
2022/11/21 02:31:59;;;;;;;30.40;18.60;;;;;;;0.27;98.76;99152.59;5097996;28;20503;-69
2022/11/21 02:34:26;;;;;;;27.27;16.47;;;;;;;0.35;98.64;99159.97;5103903;28;20519;-70
2022/11/21 02:36:52;;;;;;;33.30;18.00;;;;;;;0.34;98.50;99143.34;5101156;28;20555;-70
2022/11/21 02:39:21;;;;;;;29.90;18.90;;;;;;;0.36;98.47;99154.63;5102242;28;20462;-70
2022/11/21 02:41:57;;;;;;;32.13;18.57;;;;;;;0.35;98.34;99142.41;5100593;28;20894;-71
2022/11/21 02:44:28;;;;;;;31.20;17.57;;;;;;;0.38;98.38;99146.59;5102548;28;20535;-70
2022/11/21 02:46:55;;;;;;;34.13;19.70;;;;;;;0.37;98.13;99151.03;5101988;28;20531;-70
2022/11/21 02:49:30;;;;;;;29.67;18.00;;;;;;;0.40;98.09;99147.38;5100745;28;20511;-70
2022/11/21 02:51:57;;;;;;;24.90;17.37;;;;;;;0.45;98.11;99152.31;5097962;28;20743;-69
2022/11/21 02:54:23;;;;;;;28.47;16.97;;;;;;;0.46;98.30;99161.88;5082982;28;20440;-69
2022/11/21 02:56:50;;;;;;;25.03;16.33;;;;;;;0.46;98.17;99159.25;5082185;28;20508;-70
2022/11/21 02:59:17;;;;;;;26.10;16.40;;;;;;;0.53;98.11;99157.91;5092367;28;20519;-71
2022/11/21 03:01:44;;;;;;;25.60;17.27;;;;;;;0.33;97.99;99160.09;5100023;28;20617;-70
2022/11/21 03:04:11;;;;;;;26.47;17.43;;;;;;;0.25;98.23;99159.75;5100589;28;20474;-71
2022/11/21 03:06:38;;;;;;;28.47;17.37;;;;;;;0.25;98.50;99159.75;5083724;28;20481;-69
2022/11/21 03:09:04;;;;;;;27.67;17.37;;;;;;;0.28;98.48;99156.91;5102032;28;20974;-69
2022/11/21 03:11:31;;;;;;;29.90;18.90;;;;;;;0.28;98.18;99159.53;5083949;28;20539;-69
2022/11/21 03:13:57;;;;;;;29.10;18.60;;;;;;;0.16;98.54;99150.69;5084762;28;20490;-70
2022/11/21 03:16:24;;;;;;;30.50;19.20;;;;;;;0.13;98.47;99150.88;5101368;28;20475;-70
2022/11/21 03:18:52;;;;;;;31.67;18.60;;;;;;;0.09;98.56;99149.41;5101031;28;20874;-69
2022/11/21 03:21:19;;;;;;;29.17;18.50;;;;;;;0.15;98.58;99154.25;5101193;28;20503;-70
2022/11/21 03:23:45;;;;;;;31.77;18.20;;;;;;;0.23;98.74;99159.00;5100537;28;20455;-70
2022/11/21 03:26:12;;;;;;;30.03;18.47;;;;;;;0.21;98.80;99160.03;5092744;28;20522;-71
2022/11/21 03:28:38;;;;;;;32.20;18.63;;;;;;;0.23;98.69;99164.25;5095001;28;20480;-70
2022/11/21 03:31:05;;;;;;;29.57;16.97;;;;;;;0.21;98.71;99158.28;5061019;28;20999;-70
2022/11/21 03:33:31;;;;;;;29.80;19.47;;;;;;;0.17;98.69;99159.41;5092305;28;20573;-70
2022/11/21 03:35:59;;;;;;;24.53;17.20;;;;;;;0.16;98.92;99153.31;5093915;28;20587;-71
2022/11/21 03:38:26;;;;;;;24.50;16.53;;;;;;;0.22;98.87;99159.09;5081663;28;20473;-69
2022/11/21 03:40:53;;;;;;;36.30;19.80;;;;;;;0.18;98.77;99166.34;5101677;28;20478;-70
2022/11/21 03:43:19;;;;;;;26.70;16.67;;;;;;;0.17;98.89;99165.53;5088486;28;20492;-71
2022/11/21 03:45:47;;;;;;;27.67;18.60;;;;;;;0.19;98.60;99175.91;5083472;28;20476;-70
2022/11/21 03:48:13;;;;;;;29.70;17.50;;;;;;;0.22;98.58;99174.88;5086828;28;20458;-70
2022/11/21 03:50:42;;;;;;;28.33;18.37;;;;;;;0.25;98.43;99179.94;5085314;28;20483;-70
2022/11/21 03:53:10;;;;;;;29.60;19.67;;;;;;;0.30;98.52;99180.47;5101652;28;20558;-70
2022/11/21 03:55:37;;;;;;;28.43;18.90;;;;;;;0.28;98.51;99192.84;5095013;28;20464;-71
2022/11/21 03:58:04;;;;;;;32.43;18.10;;;;;;;0.27;98.39;99181.50;5089998;28;20459;-70
2022/11/21 04:00:30;;;;;;;27.87;18.17;;;;;;;0.33;98.33;99175.84;5100295;28;20522;-69
2022/11/21 04:02:57;;;;;;;25.70;19.00;;;;;;;0.31;98.38;99179.50;5101016;28;20534;-70
2022/11/21 04:05:23;;;;;;;29.70;18.13;;;;;;;0.28;98.07;99180.56;5090621;28;20482;-71
2022/11/21 04:07:50;;;;;;;27.53;17.60;;;;;;;0.23;98.27;99182.66;5080603;28;20473;-71
2022/11/21 04:10:19;;;;;;;28.97;18.57;;;;;;;0.21;98.23;99181.06;5082640;28;20449;-70
2022/11/21 04:12:46;;;;;;;26.27;18.07;;;;;;;0.24;98.10;99171.19;5099819;28;20486;-69
2022/11/21 04:15:12;;;;;;;32.50;19.43;;;;;;;0.29;98.20;99176.97;5094849;28;20464;-72
2022/11/21 04:17:39;;;;;;;28.57;18.77;;;;;;;0.33;98.16;99178.50;5079465;28;20475;-71
2022/11/21 04:20:06;;;;;;;26.53;17.23;;;;;;;0.39;98.24;99177.22;5085370;28;20522;-72
2022/11/21 04:22:33;;;;;;;27.43;17.37;;;;;;;0.40;98.01;99183.31;5099441;28;20484;-72
2022/11/21 04:24:59;;;;;;;26.70;17.10;;;;;;;0.43;98.05;99180.50;5097382;28;20544;-72
2022/11/21 04:27:27;;;;;;;27.37;16.90;;;;;;;0.40;97.97;99176.28;5079009;28;20914;-72
2022/11/21 04:29:54;;;;;;;29.87;18.20;;;;;;;0.45;97.72;99184.72;5085964;28;20551;-71
2022/11/21 04:32:21;;;;;;;26.03;16.43;;;;;;;0.29;97.65;99184.88;5080803;28;20499;-72
2022/11/21 04:34:47;;;;;;;30.53;18.03;;;;;;;0.27;97.98;99192.03;5088934;28;20441;-70
2022/11/21 04:37:14;;;;;;;27.67;19.30;;;;;;;0.33;98.12;99189.00;5088063;28;20500;-70
2022/11/21 04:39:40;;;;;;;30.67;18.27;;;;;;;0.35;98.18;99187.09;5080501;28;20483;-70
2022/11/21 04:42:07;;;;;;;25.40;16.77;;;;;;;0.34;98.47;99188.03;5080048;28;20543;-72
2022/11/21 04:44:35;;;;;;;27.70;16.67;;;;;;;0.34;98.46;99189.84;5099248;28;20478;-72
2022/11/21 04:47:02;;;;;;;28.77;18.17;;;;;;;0.33;98.46;99185.50;5093330;28;20511;-71
2022/11/21 04:49:28;;;;;;;27.60;17.40;;;;;;;0.35;98.59;99189.72;5080335;28;20906;-71
2022/11/21 04:51:55;;;;;;;28.70;16.80;;;;;;;0.37;98.64;99190.47;5087741;28;20483;-69
2022/11/21 04:54:21;;;;;;;26.63;17.27;;;;;;;0.34;98.59;99187.22;5083111;28;20506;-70
2022/11/21 04:56:48;;;;;;;23.13;15.67;;;;;;;0.37;98.50;99184.38;5098893;28;20510;-71
2022/11/21 04:59:15;;;;;;;28.57;16.87;;;;;;;0.36;98.25;99183.53;5088804;28;20456;-69
2022/11/21 05:01:44;;;;;;;23.80;16.20;;;;;;;0.34;98.58;99181.94;5086458;28;20478;-72
2022/11/21 05:04:11;;;;;;;24.37;16.13;;;;;;;0.32;98.63;99179.41;5090791;28;20455;-72
2022/11/21 05:06:38;;;;;;;27.73;16.37;;;;;;;0.33;98.80;99178.50;5083901;28;20555;-71
2022/11/21 05:09:04;;;;;;;26.27;17.43;;;;;;;0.31;98.78;99175.13;5090687;28;20483;-71
2022/11/21 05:14:15;;;;;;;27.43;17.50;;;;;;;0.25;98.93;99172.06;5072157;28;20493;-70
2022/11/21 05:16:43;;;;;;;28.23;16.90;;;;;;;0.18;98.64;99167.19;5101170;28;20483;-72
2022/11/21 05:19:10;;;;;;;23.20;15.70;;;;;;;0.28;98.51;99175.31;5103126;28;20497;-71
2022/11/21 05:21:37;;;;;;;23.20;16.40;;;;;;;0.21;98.52;99175.81;5103671;28;20522;-71
2022/11/21 05:24:06;;;;;;;23.73;16.23;;;;;;;0.18;98.58;99182.97;5087362;28;20456;-71
2022/11/21 05:26:33;;;;;;;27.75;17.50;;;;;;;0.17;98.66;99183.06;5076600;28;20559;-70
2022/11/21 05:28:59;;;;;;;27.53;18.07;;;;;;;0.13;98.80;99186.84;5085370;28;20248;-71
2022/11/21 05:31:26;;;;;;;35.57;21.60;;;;;;;0.14;98.79;99191.13;5081613;28;20703;-71
2022/11/21 05:33:54;;;;;;;30.17;18.53;;;;;;;0.22;99.00;99188.84;5078816;28;20499;-66
2022/11/21 05:36:24;;;;;;;29.37;19.20;;;;;;;0.18;98.99;99192.63;5084031;28;20716;-68
2022/11/21 05:38:51;;;;;;;28.93;19.27;;;;;;;0.12;99.01;99193.03;5082887;28;20447;-66
2022/11/21 05:41:17;;;;;;;33.27;19.00;;;;;;;0.08;99.07;99184.50;5084552;28;20476;-66
2022/11/21 05:43:45;;;;;;;27.80;16.90;;;;;;;-0.01;99.37;99179.84;5073179;28;20476;-67
2022/11/21 05:46:15;;;;;;;26.60;18.30;;;;;;;-0.09;99.12;99185.59;5077834;28;20956;-66
2022/11/21 05:48:42;;;;;;;25.63;15.60;;;;;;;-0.16;99.07;99188.72;5083362;28;20538;-66
2022/11/21 05:51:10;;;;;;;29.40;18.87;;;;;;;-0.28;98.89;99198.22;5086524;28;21386;-66
2022/11/21 05:53:37;;;;;;;26.03;16.00;;;;;;;-0.41;98.79;99200.81;5064296;28;20469;-66
2022/11/21 05:56:05;;;;;;;24.63;16.57;;;;;;;-0.50;98.82;99194.34;5084451;28;20543;-66
2022/11/21 05:58:31;;;;;;;25.47;16.97;;;;;;;-0.58;98.86;99193.97;5086407;28;20452;-66
2022/11/21 06:00:58;;;;;;;28.87;17.93;;;;;;;-0.60;99.13;99199.31;5078596;28;21114;-66
2022/11/21 06:03:27;;;;;;;24.27;16.17;;;;;;;-0.67;98.97;99194.56;5082872;28;20531;-66
2022/11/21 06:05:59;;;;;;;24.05;17.15;;;;;;;-0.66;99.24;99201.47;5083310;28;20467;-66
2022/11/21 06:08:31;;;;;;;25.20;16.97;;;;;;;-0.76;99.17;99209.09;5084092;28;20625;-66
2022/11/21 06:10:57;;;;;;;30.47;18.17;;;;;;;-0.84;99.21;99201.69;5073587;28;20852;-66
2022/11/21 06:13:24;;;;;;;26.70;17.97;;;;;;;-0.84;99.42;99204.31;5074916;28;20524;-66
2022/11/21 06:15:53;;;;;;;29.73;17.20;;;;;;;-0.90;99.56;99204.69;5096824;28;20767;-67
2022/11/21 06:18:20;;;;;;;27.73;16.97;;;;;;;-0.94;99.62;99211.06;5096156;28;20459;-67
2022/11/21 06:20:47;;;;;;;33.15;19.63;;;;;;;-1.02;99.55;99201.03;5094823;28;20589;-66
2022/11/21 06:23:13;;;;;;;28.00;16.03;;;;;;;-1.10;99.61;99205.06;5085994;28;20194;-66
2022/11/21 06:25:42;;;;;;;26.67;17.33;;;;;;;-1.12;99.56;99197.28;5096623;28;20490;-66
2022/11/21 06:28:08;;;;;;;25.67;17.38;;;;;;;-1.15;99.82;99186.97;5086330;28;20294;-66
2022/11/21 06:30:35;;;;;;;24.40;17.58;;;;;;;-1.15;99.90;99187.84;5096482;28;20929;-66
2022/11/21 06:33:05;;;;;;;37.10;21.90;;;;;;;-1.18;100.00;99195.88;5080485;28;20249;-66
2022/11/21 06:35:32;;;;;;;25.85;17.17;;;;;;;-1.17;99.95;99196.72;5079169;28;20234;-66
2022/11/21 06:37:59;;;;;;;29.23;18.67;;;;;;;-1.26;99.90;99205.97;5085748;28;20211;-67
2022/11/21 06:40:26;;;;;;;25.60;19.85;;;;;;;-1.36;99.87;99205.66;5088977;28;20306;-65
2022/11/21 06:42:54;;;;;;;28.47;19.57;;;;;;;-1.42;100.00;99203.41;5084943;28;20214;-73
2022/11/21 06:45:20;;;;;;;31.98;21.45;;;;;;;-1.44;100.00;99199.19;5079684;28;20476;-65
2022/11/21 06:47:47;;;;;;;34.60;20.90;;;;;;;-1.49;100.00;99202.09;5080041;28;20278;-65
2022/11/21 06:50:13;;;;;;;27.52;19.55;;;;;;;-1.42;100.00;99205.22;5081251;28;20199;-66
2022/11/21 06:52:40;;;;;;;27.90;18.90;;;;;;;-1.38;100.00;99201.47;5083790;28;20239;-72
2022/11/21 06:55:08;;;;;;;25.95;17.40;;;;;;;-1.36;100.00;99199.59;5081501;28;20669;-71
2022/11/21 06:57:34;;;;;;;28.63;17.23;;;;;;;-1.30;100.00;99204.47;5080996;28;20458;-72
2022/11/21 07:00:04;;;;;;;33.47;19.30;;;;;;;-1.33;100.00;99202.03;5080238;28;20237;-73
2022/11/21 07:02:30;;;;;;;27.00;18.90;;;;;;;-1.36;100.00;99195.19;5074680;28;20253;-71
2022/11/21 07:04:57;;;;;;;28.02;18.60;;;;;;;-1.34;100.00;99210.81;5088994;28;20256;-71
2022/11/21 07:07:24;;;;;;;31.93;20.30;;;;;;;-1.28;100.00;99207.84;5099389;28;20241;-72
2022/11/21 07:09:54;;;;;;;31.20;21.17;;;;;;;-1.19;100.00;99214.31;5081890;28;20441;-71
2022/11/21 07:15:13;;;;;;;39.38;24.60;;;;;;;-1.20;100.00;99213.50;5073928;28;20714;-71
2022/11/21 07:17:40;;;;;;;38.00;21.33;;;;;;;-1.17;100.00;99210.66;5080553;28;20206;-70
2022/11/21 07:20:07;;;;;;;34.55;20.60;;;;;;;-1.12;100.00;99209.56;5098866;28;20216;-69
2022/11/21 07:22:34;;;;;;;33.42;22.17;;;;;;;-1.10;100.00;99210.31;5099009;28;20212;-69
2022/11/21 07:25:01;;;;;;;37.97;21.88;;;;;;;-1.08;100.00;99211.88;5080877;28;20190;-71
2022/11/21 07:27:27;;;;;;;48.10;30.00;;;;;;;-1.04;100.00;99218.66;5093420;28;20226;-72
2022/11/21 07:29:56;;;;;;;33.50;23.70;;;;;;;-0.99;100.00;99221.84;5079357;28;20504;-69
2022/11/21 07:32:24;;;;;;;34.97;22.17;;;;;;;-0.99;100.00;99220.97;5075491;28;20465;-71
2022/11/21 07:34:51;;;;;;;35.20;20.77;;;;;;;-0.96;100.00;99211.13;5084723;28;20221;-70
2022/11/21 07:37:18;;;;;;;33.20;21.45;;;;;;;-0.78;100.00;99206.56;5078482;28;20898;-69
2022/11/21 07:39:44;;;;;;;36.65;24.35;;;;;;;-0.49;100.00;99205.69;5078449;28;20287;-70
2022/11/21 07:42:12;;;;;;;39.88;23.75;;;;;;;-0.30;100.00;99214.09;5077288;28;20256;-69
2022/11/21 07:44:39;;;;;;;46.53;29.10;;;;;;;-0.20;100.00;99215.19;5085338;28;20205;-69
2022/11/21 07:47:05;;;;;;;30.33;21.97;;;;;;;0.19;100.00;99210.06;5083796;28;21255;-70
2022/11/21 07:49:35;;;;;;;35.67;21.50;;;;;;;0.21;99.39;99212.59;5080128;28;20490;-71
2022/11/21 07:52:02;;;;;;;36.63;22.87;;;;;;;0.45;98.91;99215.41;5084307;28;20480;-70
2022/11/21 07:54:28;;;;;;;39.40;24.47;;;;;;;1.27;97.15;99205.47;5087030;28;20522;-72
2022/11/21 07:56:55;;;;;;;38.90;26.03;;;;;;;1.83;91.67;99208.47;5071361;28;20552;-71
2022/11/21 07:59:22;;;;;;;35.80;21.50;;;;;;;1.73;89.85;99211.91;5083652;28;20888;-70
2022/11/21 08:01:50;;;;;;;35.20;22.30;;;;;;;2.74;89.31;99208.84;5087133;28;20530;-71
2022/11/21 08:04:17;;;;;;;34.20;21.30;;;;;;;2.95;85.52;99206.38;5080819;28;20471;-71
2022/11/21 08:06:45;;;;;;;35.73;22.67;;;;;;;2.91;82.06;99205.78;5078187;28;20483;-73
2022/11/21 08:09:12;;;;;;;38.23;23.50;;;;;;;3.65;80.98;99207.97;5081851;28;20503;-74
2022/11/21 08:11:38;;;;;;;28.97;21.80;;;;;;;4.30;77.45;99208.03;5084786;28;20495;-73
2022/11/21 08:14:05;;;;;;;30.33;21.20;;;;;;;3.46;74.41;99219.16;5089542;28;20518;-71
2022/11/21 08:16:32;;;;;;;26.63;18.20;;;;;;;2.64;78.04;99209.56;5093335;28;20685;-74
2022/11/21 08:18:59;;;;;;;25.40;18.30;;;;;;;2.18;80.31;99206.88;5081029;28;20543;-71
2022/11/21 08:21:26;;;;;;;34.00;22.30;;;;;;;1.75;83.91;99215.25;5078585;28;20503;-70
2022/11/21 08:23:54;;;;;;;35.03;20.30;;;;;;;2.18;84.89;99207.72;5081897;28;20470;-69
2022/11/21 08:26:21;;;;;;;26.93;18.57;;;;;;;2.54;83.66;99203.28;5086100;28;20480;-69
2022/11/21 08:28:48;;;;;;;28.13;18.10;;;;;;;2.42;81.89;99204.22;5078761;28;20487;-69
2022/11/21 08:31:14;;;;;;;24.20;16.90;;;;;;;2.43;81.32;99204.09;5086051;28;20539;-70
2022/11/21 08:33:41;;;;;;;23.30;15.83;;;;;;;2.10;81.84;99209.22;5080720;28;20483;-67
2022/11/21 08:36:10;;;;;;;25.93;18.20;;;;;;;2.41;82.66;99213.06;5098700;28;20495;-67
2022/11/21 08:38:37;;;;;;;31.30;19.33;;;;;;;2.72;80.69;99205.50;5075868;28;20494;-67
2022/11/21 08:43:49;;;;;;;30.53;16.80;;;;;;;1.92;87.65;99204.34;5082448;28;20875;-70
2022/11/21 08:46:17;;;;;;;34.90;16.87;;;;;;;2.05;87.71;99191.97;5079529;28;20464;-71
2022/11/21 08:48:43;;;;;;;32.20;16.40;;;;;;;3.11;85.94;99190.22;5086181;28;20466;-71
2022/11/21 08:51:10;;;;;;;30.83;15.37;;;;;;;4.22;79.06;99190.16;5077955;28;20503;-71
2022/11/21 08:53:37;;;;;;;28.60;16.40;;;;;;;5.79;73.91;99191.84;5079822;28;20476;-73
2022/11/21 08:56:05;;;;;;;24.20;15.13;;;;;;;6.46;67.89;99190.25;5079489;28;21148;-68
2022/11/21 08:58:31;;;;;;;22.60;14.30;;;;;;;7.91;61.67;99177.44;5094964;28;20459;-70
2022/11/21 09:00:59;;;;;;;22.17;14.40;;;;;;;7.23;62.11;99190.25;5088035;28;20491;-71
2022/11/21 09:03:26;;;;;;;21.87;13.80;;;;;;;8.00;61.19;99185.53;5080501;28;20456;-73
2022/11/21 09:05:52;;;;;;;18.70;13.53;;;;;;;8.03;59.63;99185.22;5088364;28;20474;-72
2022/11/21 09:08:20;;;;;;;18.53;13.43;;;;;;;7.91;59.93;99179.28;5082337;28;20491;-76
2022/11/21 09:10:47;;;;;;;15.23;11.57;;;;;;;8.98;55.00;99175.72;5085566;28;20476;-76
2022/11/21 09:13:15;;;;;;;17.27;12.20;;;;;;;9.95;53.25;99172.84;5078508;28;20461;-77
2022/11/21 09:18:26;;;;;;;16.93;11.20;;;;;;;8.33;59.04;99186.66;5078561;28;20815;-63
2022/11/21 09:20:53;;;;;;;15.27;11.60;;;;;;;9.01;55.49;99182.59;5085761;28;20523;-64
2022/11/21 09:23:22;;;;;;;17.80;12.17;;;;;;;9.44;54.38;99183.47;5079261;28;20444;-78
2022/11/21 09:25:49;;;;;;;14.50;11.50;;;;;;;10.99;50.22;99184.78;5079096;28;20469;-79
2022/11/21 09:28:18;;;;;;;14.17;11.80;;;;;;;11.79;47.66;99175.81;5080231;28;20444;-78
2022/11/21 09:30:48;;;;;;;14.67;12.23;;;;;;;9.52;51.70;99178.19;5087067;28;20487;-78
2022/11/21 09:33:16;;;;;;;15.53;12.27;;;;;;;11.01;48.54;99171.25;5080342;28;20440;-78
2022/11/21 09:35:43;;;;;;;15.13;12.63;;;;;;;12.40;45.33;99161.75;5081580;28;20540;-81
2022/11/21 09:38:10;;;;;;;14.10;11.43;;;;;;;13.15;43.71;99166.25;5091444;28;20454;-78
2022/11/21 09:40:37;;;;;;;12.70;10.70;;;;;;;11.62;45.75;99169.69;5079258;28;20540;-78
2022/11/21 09:43:15;;;;;;;18.37;12.40;;;;;;;10.04;51.37;99165.69;5078568;28;20446;-79
2022/11/21 09:45:46;;;;;;;14.67;12.63;;;;;;;10.08;49.97;99167.84;5094039;28;20464;-78
2022/11/21 09:48:18;;;;;;;16.47;12.93;;;;;;;9.83;51.21;99168.81;5093709;28;20457;-78
2022/11/21 09:50:48;;;;;;;15.60;12.40;;;;;;;8.88;53.38;99168.84;5087183;28;20466;-74
2022/11/21 09:53:18;;;;;;;16.00;12.60;;;;;;;8.90;54.01;99172.19;5085236;28;20489;-75
2022/11/21 09:55:47;;;;;;;17.50;12.57;;;;;;;9.13;53.64;99169.81;5079337;28;20984;-77
2022/11/21 09:58:25;;;;;;;15.70;12.93;;;;;;;8.69;55.95;99176.03;5079456;28;20476;-75
2022/11/21 10:00:55;;;;;;;15.73;12.70;;;;;;;8.72;55.03;99173.06;5098758;28;21014;-75
2022/11/21 10:03:24;;;;;;;14.63;11.37;;;;;;;10.46;50.91;99170.09;5091739;28;20522;-73
2022/11/21 10:05:54;;;;;;;15.27;11.13;;;;;;;9.43;52.54;99158.63;5081362;28;20484;-78
2022/11/21 10:08:29;;;;;;;16.07;12.10;;;;;;;10.44;50.45;99169.44;5081228;28;20507;-74
2022/11/21 10:10:59;;;;;;;14.83;10.87;;;;;;;10.01;51.18;99166.81;5084390;28;20491;-78
2022/11/21 10:13:36;;;;;;;15.17;11.73;;;;;;;9.23;52.21;99165.22;5081952;28;20728;-75
2022/11/21 10:16:09;;;;;;;17.07;12.20;;;;;;;7.09;60.37;99163.16;5081888;28;20475;-75
2022/11/21 10:19:05;;;;;;;17.43;12.30;;;;;;;7.21;61.20;99152.34;5087931;28;20467;-71
2022/11/21 10:21:45;;;;;;;18.80;13.20;;;;;;;6.92;61.81;99145.31;5076118;28;20472;-72
2022/11/21 10:24:36;;;;;;;18.37;11.17;;;;;;;7.23;61.99;99137.91;5080109;28;20520;-73
2022/11/21 10:27:09;;;;;;;16.00;11.27;;;;;;;7.84;59.08;99130.31;5061603;28;20507;-78
2022/11/21 10:29:38;;;;;;;17.77;12.73;;;;;;;6.74;61.64;99123.97;5081126;28;20498;-67
2022/11/21 10:32:14;;;;;;;14.03;11.03;;;;;;;5.46;66.68;99117.78;5101348;28;20483;-81
2022/11/21 10:34:41;;;;;;;15.73;10.80;;;;;;;5.06;70.04;99123.94;5102467;28;20501;-81
2022/11/21 10:37:13;;;;;;;18.37;11.80;;;;;;;6.16;69.09;99122.22;5099460;28;20996;-75
2022/11/21 10:39:43;;;;;;;15.97;11.50;;;;;;;6.17;67.18;99123.91;5082366;28;20483;-76
2022/11/21 10:42:16;;;;;;;18.60;12.47;;;;;;;6.21;67.03;99118.19;5083658;28;20475;-73
2022/11/21 10:47:33;;;;;;;15.70;11.33;;;;;;;7.84;61.12;99111.69;5082484;28;20490;-74
2022/11/21 10:50:04;;;;;;;18.23;12.20;;;;;;;8.60;59.48;99100.53;5081985;28;20452;-76
2022/11/21 10:52:31;;;;;;;15.60;11.33;;;;;;;8.30;58.23;99094.63;5081949;28;20893;-72
2022/11/21 10:55:04;;;;;;;14.17;10.77;;;;;;;7.18;61.89;99104.78;5081201;28;20526;-74
2022/11/21 10:57:32;;;;;;;15.73;11.50;;;;;;;5.95;66.30;99103.75;5081133;28;20475;-72
2022/11/21 11:00:00;;;;;;;15.17;10.20;;;;;;;5.57;68.84;99090.34;5086953;28;20453;-73
2022/11/21 11:02:27;;;;;;;16.20;10.20;;;;;;;5.50;70.50;99099.78;5078624;28;20577;-74
2022/11/21 11:05:19;;;;;;;15.67;10.90;;;;;;;5.82;69.27;99098.72;5080061;28;20440;-74
2022/11/21 11:08:00;;;;;;;16.07;9.87;;;;;;;7.13;63.31;99102.56;5075474;28;20481;-73
2022/11/21 11:10:27;;;;;;;17.97;10.60;;;;;;;6.25;64.14;99092.19;5100060;28;20463;-77
2022/11/21 11:15:53;;;;;;;16.73;10.37;;;;;;;4.83;71.77;99075.59;5081014;28;20676;-78
2022/11/21 11:18:22;;;;;;;14.80;10.40;;;;;;;5.27;70.72;99070.03;5077615;28;20790;-74
2022/11/21 11:20:50;;;;;;;16.80;10.37;;;;;;;6.54;64.59;99065.56;5085698;28;20476;-75
2022/11/21 11:23:26;;;;;;;15.17;9.13;;;;;;;4.62;71.75;99067.72;5083133;28;20452;-77
2022/11/21 11:25:54;;;;;;;13.57;9.27;;;;;;;4.78;72.71;99069.03;5080560;28;20507;-72
2022/11/21 11:28:22;;;;;;;16.87;9.57;;;;;;;3.54;76.29;99065.25;5080603;28;20476;-74
2022/11/21 11:30:49;;;;;;;15.23;9.77;;;;;;;3.01;80.23;99064.16;5081530;28;20510;-74
2022/11/21 11:33:39;;;;;;;15.57;9.27;;;;;;;3.29;81.30;99063.78;5080411;28;20448;-75
2022/11/21 11:36:13;;;;;;;17.23;10.43;;;;;;;5.76;73.61;99051.53;5090716;28;20507;-72
2022/11/21 11:38:42;;;;;;;15.47;10.40;;;;;;;7.94;64.93;99035.25;5083923;28;20474;-69
2022/11/21 11:41:14;;;;;;;17.70;10.13;;;;;;;9.31;59.59;99039.91;5079621;28;20499;-72
2022/11/21 11:49:31;;;;;;;14.83;9.60;;;;;;;8.69;56.57;99029.47;5079804;28;20471;-71